sensor_id;sensor_type;location;lat;lon;timestamp;temperature;humidity
78731;SHT31;68055;51.978;5.658;2023-05-10T00:02:13;16.8;74.6
78731;SHT31;68055;51.978;5.658;2023-05-10T00:04:42;16.8;75.3
78731;SHT31;68055;51.978;5.658;2023-05-10T00:07:12;16.8;75.6
78731;SHT31;68055;51.978;5.658;2023-05-10T00:09:42;16.8;74.7
78731;SHT31;68055;51.978;5.658;2023-05-10T00:12:11;16.8;74.2
78731;SHT31;68055;51.978;5.658;2023-05-10T00:14:41;16.8;74.9
78731;SHT31;68055;51.978;5.658;2023-05-10T00:17:11;16.8;75.3
78731;SHT31;68055;51.978;5.658;2023-05-10T00:19:40;16.8;74.3
78731;SHT31;68055;51.978;5.658;2023-05-10T00:22:10;16.8;74.7
78731;SHT31;68055;51.978;5.658;2023-05-10T00:24:40;16.8;75.2
78731;SHT31;68055;51.978;5.658;2023-05-10T00:27:09;16.8;75.4
78731;SHT31;68055;51.978;5.658;2023-05-10T00:29:39;16.8;74.5
78731;SHT31;68055;51.978;5.658;2023-05-10T00:32:08;16.8;74.3
78731;SHT31;68055;51.978;5.658;2023-05-10T00:34:38;16.8;75.0
78731;SHT31;68055;51.978;5.658;2023-05-10T00:37:08;16.8;75.1
78731;SHT31;68055;51.978;5.658;2023-05-10T00:39:37;16.8;75.2
78731;SHT31;68055;51.978;5.658;2023-05-10T00:42:07;16.8;74.8
78731;SHT31;68055;51.978;5.658;2023-05-10T00:44:37;16.8;74.9
78731;SHT31;68055;51.978;5.658;2023-05-10T00:47:06;16.8;74.9
78731;SHT31;68055;51.978;5.658;2023-05-10T00:49:37;16.8;74.5
78731;SHT31;68055;51.978;5.658;2023-05-10T00:52:07;16.9;74.5
78731;SHT31;68055;51.978;5.658;2023-05-10T00:54:37;16.9;75.0
78731;SHT31;68055;51.978;5.658;2023-05-10T00:57:07;16.9;74.7
78731;SHT31;68055;51.978;5.658;2023-05-10T00:59:38;16.9;74.3
78731;SHT31;68055;51.978;5.658;2023-05-10T01:02:08;16.9;73.6
78731;SHT31;68055;51.978;5.658;2023-05-10T01:04:38;16.9;73.6
78731;SHT31;68055;51.978;5.658;2023-05-10T01:07:08;17.0;74.4
78731;SHT31;68055;51.978;5.658;2023-05-10T01:09:38;17.0;73.8
78731;SHT31;68055;51.978;5.658;2023-05-10T01:12:10;17.0;73.7
78731;SHT31;68055;51.978;5.658;2023-05-10T01:14:40;17.0;73.6
78731;SHT31;68055;51.978;5.658;2023-05-10T01:17:12;17.0;73.8
78731;SHT31;68055;51.978;5.658;2023-05-10T01:19:42;17.0;73.7
78731;SHT31;68055;51.978;5.658;2023-05-10T01:22:29;17.0;73.4
78731;SHT31;68055;51.978;5.658;2023-05-10T01:25:22;17.1;73.5
78731;SHT31;68055;51.978;5.658;2023-05-10T01:28:37;17.1;73.7
78731;SHT31;68055;51.978;5.658;2023-05-10T01:31:26;17.1;73.6
78731;SHT31;68055;51.978;5.658;2023-05-10T01:34:02;17.1;73.3
78731;SHT31;68055;51.978;5.658;2023-05-10T01:36:42;17.1;73.5
78731;SHT31;68055;51.978;5.658;2023-05-10T01:39:19;17.1;73.2
78731;SHT31;68055;51.978;5.658;2023-05-10T01:41:55;17.1;73.3
78731;SHT31;68055;51.978;5.658;2023-05-10T01:44:38;17.1;73.3
78731;SHT31;68055;51.978;5.658;2023-05-10T01:47:10;17.1;73.5
78731;SHT31;68055;51.978;5.658;2023-05-10T01:49:45;17.1;73.5
78731;SHT31;68055;51.978;5.658;2023-05-10T01:52:18;17.1;72.9
78731;SHT31;68055;51.978;5.658;2023-05-10T01:54:55;17.2;73.0
78731;SHT31;68055;51.978;5.658;2023-05-10T01:57:30;17.2;72.6
78731;SHT31;68055;51.978;5.658;2023-05-10T02:00:02;17.2;72.7
78731;SHT31;68055;51.978;5.658;2023-05-10T02:02:37;17.2;72.5
78731;SHT31;68055;51.978;5.658;2023-05-10T02:05:08;17.2;72.4
78731;SHT31;68055;51.978;5.658;2023-05-10T02:07:41;17.2;72.4
78731;SHT31;68055;51.978;5.658;2023-05-10T02:10:12;17.2;72.7
78731;SHT31;68055;51.978;5.658;2023-05-10T02:12:46;17.2;72.6
78731;SHT31;68055;51.978;5.658;2023-05-10T02:15:22;17.2;72.1
78731;SHT31;68055;51.978;5.658;2023-05-10T02:17:54;17.2;72.4
78731;SHT31;68055;51.978;5.658;2023-05-10T02:20:26;17.2;72.5
78731;SHT31;68055;51.978;5.658;2023-05-10T02:22:57;17.2;72.3
78731;SHT31;68055;51.978;5.658;2023-05-10T02:25:31;17.2;72.1
78731;SHT31;68055;51.978;5.658;2023-05-10T02:28:03;17.2;72.4
78731;SHT31;68055;51.978;5.658;2023-05-10T02:30:35;17.2;72.4
78731;SHT31;68055;51.978;5.658;2023-05-10T02:33:06;17.2;72.0
78731;SHT31;68055;51.978;5.658;2023-05-10T02:35:38;17.2;72.2
78731;SHT31;68055;51.978;5.658;2023-05-10T02:38:09;17.2;72.2
78731;SHT31;68055;51.978;5.658;2023-05-10T02:40:43;17.2;72.3
78731;SHT31;68055;51.978;5.658;2023-05-10T02:43:16;17.2;72.1
78731;SHT31;68055;51.978;5.658;2023-05-10T02:45:48;17.2;71.9
78731;SHT31;68055;51.978;5.658;2023-05-10T02:48:18;17.2;72.1
78731;SHT31;68055;51.978;5.658;2023-05-10T02:50:50;17.2;71.8
78731;SHT31;68055;51.978;5.658;2023-05-10T02:53:31;17.2;72.2
78731;SHT31;68055;51.978;5.658;2023-05-10T02:56:01;17.2;70.9
78731;SHT31;68055;51.978;5.658;2023-05-10T02:58:36;17.2;71.2
78731;SHT31;68055;51.978;5.658;2023-05-10T03:01:06;17.2;70.8
78731;SHT31;68055;51.978;5.658;2023-05-10T03:03:37;17.1;71.3
78731;SHT31;68055;51.978;5.658;2023-05-10T03:06:06;17.1;70.8
78731;SHT31;68055;51.978;5.658;2023-05-10T03:08:37;17.1;70.9
78731;SHT31;68055;51.978;5.658;2023-05-10T03:11:35;17.1;70.4
78731;SHT31;68055;51.978;5.658;2023-05-10T03:14:16;17.1;70.6
78731;SHT31;68055;51.978;5.658;2023-05-10T03:16:58;17.1;70.7
78731;SHT31;68055;51.978;5.658;2023-05-10T03:19:32;17.1;71.0
78731;SHT31;68055;51.978;5.658;2023-05-10T03:22:10;17.1;71.3
78731;SHT31;68055;51.978;5.658;2023-05-10T03:24:43;17.1;71.3
78731;SHT31;68055;51.978;5.658;2023-05-10T03:27:15;17.1;70.7
78731;SHT31;68055;51.978;5.658;2023-05-10T03:29:46;17.1;70.8
78731;SHT31;68055;51.978;5.658;2023-05-10T03:32:16;17.1;71.1
78731;SHT31;68055;51.978;5.658;2023-05-10T03:34:45;17.1;70.9
78731;SHT31;68055;51.978;5.658;2023-05-10T03:37:15;17.1;71.1
78731;SHT31;68055;51.978;5.658;2023-05-10T03:39:45;17.1;70.7
78731;SHT31;68055;51.978;5.658;2023-05-10T03:42:14;17.1;71.0
78731;SHT31;68055;51.978;5.658;2023-05-10T03:44:47;17.1;71.1
78731;SHT31;68055;51.978;5.658;2023-05-10T03:47:17;17.1;70.6
78731;SHT31;68055;51.978;5.658;2023-05-10T03:49:47;17.1;70.6
78731;SHT31;68055;51.978;5.658;2023-05-10T03:52:16;17.1;70.7
78731;SHT31;68055;51.978;5.658;2023-05-10T03:54:46;17.1;69.9
78731;SHT31;68055;51.978;5.658;2023-05-10T03:57:16;17.1;70.5
78731;SHT31;68055;51.978;5.658;2023-05-10T03:59:45;17.1;71.2
78731;SHT31;68055;51.978;5.658;2023-05-10T04:02:15;17.1;70.4
78731;SHT31;68055;51.978;5.658;2023-05-10T04:04:46;17.0;70.2
78731;SHT31;68055;51.978;5.658;2023-05-10T04:07:18;17.0;70.6
78731;SHT31;68055;51.978;5.658;2023-05-10T04:09:47;17.0;70.5
78731;SHT31;68055;51.978;5.658;2023-05-10T04:12:17;17.0;70.6
78731;SHT31;68055;51.978;5.658;2023-05-10T04:14:47;17.0;71.0
78731;SHT31;68055;51.978;5.658;2023-05-10T04:17:17;17.0;70.9
78731;SHT31;68055;51.978;5.658;2023-05-10T04:19:46;17.0;71.0
78731;SHT31;68055;51.978;5.658;2023-05-10T04:22:16;17.0;71.1
78731;SHT31;68055;51.978;5.658;2023-05-10T04:24:46;17.0;71.1
78731;SHT31;68055;51.978;5.658;2023-05-10T04:27:15;17.0;70.9
78731;SHT31;68055;51.978;5.658;2023-05-10T04:29:45;17.0;71.5
78731;SHT31;68055;51.978;5.658;2023-05-10T04:32:15;17.0;71.3
78731;SHT31;68055;51.978;5.658;2023-05-10T04:34:48;17.0;71.2
78731;SHT31;68055;51.978;5.658;2023-05-10T04:37:18;17.0;71.3
78731;SHT31;68055;51.978;5.658;2023-05-10T04:39:50;17.0;71.6
78731;SHT31;68055;51.978;5.658;2023-05-10T04:42:20;17.0;71.2
78731;SHT31;68055;51.978;5.658;2023-05-10T04:44:49;17.1;70.9
78731;SHT31;68055;51.978;5.658;2023-05-10T04:47:19;17.1;70.7
78731;SHT31;68055;51.978;5.658;2023-05-10T04:49:49;17.1;70.5
78731;SHT31;68055;51.978;5.658;2023-05-10T04:52:18;17.1;70.7
78731;SHT31;68055;51.978;5.658;2023-05-10T04:54:48;17.1;71.2
78731;SHT31;68055;51.978;5.658;2023-05-10T04:57:18;17.1;70.6
78731;SHT31;68055;51.978;5.658;2023-05-10T04:59:48;17.1;70.8
78731;SHT31;68055;51.978;5.658;2023-05-10T05:02:18;17.1;70.9
78731;SHT31;68055;51.978;5.658;2023-05-10T05:04:47;17.1;70.8
78731;SHT31;68055;51.978;5.658;2023-05-10T05:07:17;17.1;71.1
78731;SHT31;68055;51.978;5.658;2023-05-10T05:09:47;17.1;71.1
78731;SHT31;68055;51.978;5.658;2023-05-10T05:12:16;17.1;71.6
78731;SHT31;68055;51.978;5.658;2023-05-10T05:14:46;17.2;71.6
78731;SHT31;68055;51.978;5.658;2023-05-10T05:17:16;17.2;70.9
78731;SHT31;68055;51.978;5.658;2023-05-10T05:19:45;17.2;71.1
78731;SHT31;68055;51.978;5.658;2023-05-10T05:22:15;17.2;70.9
78731;SHT31;68055;51.978;5.658;2023-05-10T05:24:45;17.2;70.6
78731;SHT31;68055;51.978;5.658;2023-05-10T05:27:15;17.3;70.3
78731;SHT31;68055;51.978;5.658;2023-05-10T05:29:44;17.3;71.1
78731;SHT31;68055;51.978;5.658;2023-05-10T05:32:14;17.3;70.8
78731;SHT31;68055;51.978;5.658;2023-05-10T05:34:44;17.3;70.3
78731;SHT31;68055;51.978;5.658;2023-05-10T05:37:16;17.3;69.9
78731;SHT31;68055;51.978;5.658;2023-05-10T05:39:46;17.3;69.8
78731;SHT31;68055;51.978;5.658;2023-05-10T05:42:15;17.3;70.3
78731;SHT31;68055;51.978;5.658;2023-05-10T05:44:46;17.3;69.8
78731;SHT31;68055;51.978;5.658;2023-05-10T05:47:17;17.3;70.1
78731;SHT31;68055;51.978;5.658;2023-05-10T05:49:48;17.3;70.4
78731;SHT31;68055;51.978;5.658;2023-05-10T05:52:17;17.3;70.0
78731;SHT31;68055;51.978;5.658;2023-05-10T05:54:48;17.3;70.1
78731;SHT31;68055;51.978;5.658;2023-05-10T05:57:18;17.3;70.1
78731;SHT31;68055;51.978;5.658;2023-05-10T05:59:49;17.3;70.7
78731;SHT31;68055;51.978;5.658;2023-05-10T06:02:21;17.3;70.1
78731;SHT31;68055;51.978;5.658;2023-05-10T06:04:51;17.3;70.1
78731;SHT31;68055;51.978;5.658;2023-05-10T06:07:20;17.3;70.5
78731;SHT31;68055;51.978;5.658;2023-05-10T06:09:50;17.3;70.2
78731;SHT31;68055;51.978;5.658;2023-05-10T06:12:19;17.3;70.0
78731;SHT31;68055;51.978;5.658;2023-05-10T06:14:49;17.3;69.9
78731;SHT31;68055;51.978;5.658;2023-05-10T06:17:20;17.3;70.2
78731;SHT31;68055;51.978;5.658;2023-05-10T06:19:51;17.3;70.7
78731;SHT31;68055;51.978;5.658;2023-05-10T06:22:21;17.3;70.6
78731;SHT31;68055;51.978;5.658;2023-05-10T06:24:51;17.4;70.5
78731;SHT31;68055;51.978;5.658;2023-05-10T06:27:20;17.4;70.4
78731;SHT31;68055;51.978;5.658;2023-05-10T06:29:50;17.4;70.6
78731;SHT31;68055;51.978;5.658;2023-05-10T06:32:20;17.4;70.2
78731;SHT31;68055;51.978;5.658;2023-05-10T06:34:49;17.4;70.3
78731;SHT31;68055;51.978;5.658;2023-05-10T06:37:19;17.4;70.1
78731;SHT31;68055;51.978;5.658;2023-05-10T06:39:49;17.4;70.1
78731;SHT31;68055;51.978;5.658;2023-05-10T06:42:19;17.4;70.5
78731;SHT31;68055;51.978;5.658;2023-05-10T06:44:49;17.4;70.6
78731;SHT31;68055;51.978;5.658;2023-05-10T06:47:18;17.4;70.6
78731;SHT31;68055;51.978;5.658;2023-05-10T06:49:49;17.4;70.1
78731;SHT31;68055;51.978;5.658;2023-05-10T06:52:18;17.4;70.0
78731;SHT31;68055;51.978;5.658;2023-05-10T06:54:48;17.4;70.4
78731;SHT31;68055;51.978;5.658;2023-05-10T06:57:18;17.5;70.3
78731;SHT31;68055;51.978;5.658;2023-05-10T06:59:48;17.5;69.9
78731;SHT31;68055;51.978;5.658;2023-05-10T07:02:18;17.5;69.6
78731;SHT31;68055;51.978;5.658;2023-05-10T07:04:48;17.4;69.8
78731;SHT31;68055;51.978;5.658;2023-05-10T07:07:19;17.4;70.0
78731;SHT31;68055;51.978;5.658;2023-05-10T07:09:49;17.4;70.3
78731;SHT31;68055;51.978;5.658;2023-05-10T07:12:21;17.4;70.7
78731;SHT31;68055;51.978;5.658;2023-05-10T07:14:50;17.4;71.2
78731;SHT31;68055;51.978;5.658;2023-05-10T07:17:20;17.4;71.2
78731;SHT31;68055;51.978;5.658;2023-05-10T07:19:50;17.4;70.9
78731;SHT31;68055;51.978;5.658;2023-05-10T07:22:20;17.5;70.6
78731;SHT31;68055;51.978;5.658;2023-05-10T07:24:49;17.5;70.5
78731;SHT31;68055;51.978;5.658;2023-05-10T07:27:19;17.5;70.4
78731;SHT31;68055;51.978;5.658;2023-05-10T07:29:49;17.5;69.9
78731;SHT31;68055;51.978;5.658;2023-05-10T07:32:18;17.6;69.8
78731;SHT31;68055;51.978;5.658;2023-05-10T07:34:50;17.6;70.3
78731;SHT31;68055;51.978;5.658;2023-05-10T07:37:20;17.6;70.2
78731;SHT31;68055;51.978;5.658;2023-05-10T07:39:49;17.7;69.8
78731;SHT31;68055;51.978;5.658;2023-05-10T07:42:19;17.7;69.9
78731;SHT31;68055;51.978;5.658;2023-05-10T07:44:49;17.8;70.0
78731;SHT31;68055;51.978;5.658;2023-05-10T07:47:18;17.8;69.6
78731;SHT31;68055;51.978;5.658;2023-05-10T07:49:48;17.9;69.0
78731;SHT31;68055;51.978;5.658;2023-05-10T07:52:18;17.9;68.2
78731;SHT31;68055;51.978;5.658;2023-05-10T07:54:49;17.9;68.0
78731;SHT31;68055;51.978;5.658;2023-05-10T07:57:19;17.9;67.3
78731;SHT31;68055;51.978;5.658;2023-05-10T07:59:49;18.0;67.4
78731;SHT31;68055;51.978;5.658;2023-05-10T08:02:19;18.0;67.6
78731;SHT31;68055;51.978;5.658;2023-05-10T08:04:48;18.0;67.4
78731;SHT31;68055;51.978;5.658;2023-05-10T08:07:18;18.0;67.3
78731;SHT31;68055;51.978;5.658;2023-05-10T08:09:48;18.0;66.4
78731;SHT31;68055;51.978;5.658;2023-05-10T08:12:18;18.0;66.3
78731;SHT31;68055;51.978;5.658;2023-05-10T08:14:47;18.0;66.4
78731;SHT31;68055;51.978;5.658;2023-05-10T08:17:17;18.0;66.3
78731;SHT31;68055;51.978;5.658;2023-05-10T08:19:47;18.0;66.2
78731;SHT31;68055;51.978;5.658;2023-05-10T08:22:17;18.0;66.6
78731;SHT31;68055;51.978;5.658;2023-05-10T08:24:48;18.0;66.1
78731;SHT31;68055;51.978;5.658;2023-05-10T08:27:18;18.0;65.8
78731;SHT31;68055;51.978;5.658;2023-05-10T08:29:48;18.1;64.9
78731;SHT31;68055;51.978;5.658;2023-05-10T08:32:18;18.1;65.6
78731;SHT31;68055;51.978;5.658;2023-05-10T08:34:48;18.1;64.6
78731;SHT31;68055;51.978;5.658;2023-05-10T08:37:17;18.2;65.6
78731;SHT31;68055;51.978;5.658;2023-05-10T08:39:49;18.2;64.5
78731;SHT31;68055;51.978;5.658;2023-05-10T08:42:21;18.3;63.8
78731;SHT31;68055;51.978;5.658;2023-05-10T08:44:54;18.3;63.3
78731;SHT31;68055;51.978;5.658;2023-05-10T08:47:25;18.4;63.5
78731;SHT31;68055;51.978;5.658;2023-05-10T08:49:55;18.4;64.9
78731;SHT31;68055;51.978;5.658;2023-05-10T08:52:28;18.6;63.9
78731;SHT31;68055;51.978;5.658;2023-05-10T08:54:59;18.7;62.6
78731;SHT31;68055;51.978;5.658;2023-05-10T08:57:30;18.8;62.9
78731;SHT31;68055;51.978;5.658;2023-05-10T09:00:00;19.0;62.8
78731;SHT31;68055;51.978;5.658;2023-05-10T09:02:31;19.1;61.4
78731;SHT31;68055;51.978;5.658;2023-05-10T09:05:01;19.2;61.8
78731;SHT31;68055;51.978;5.658;2023-05-10T09:07:32;19.3;60.1
78731;SHT31;68055;51.978;5.658;2023-05-10T09:10:02;19.3;59.6
78731;SHT31;68055;51.978;5.658;2023-05-10T09:12:34;19.4;60.5
78731;SHT31;68055;51.978;5.658;2023-05-10T09:15:06;19.4;58.4
78731;SHT31;68055;51.978;5.658;2023-05-10T09:17:38;19.5;59.0
78731;SHT31;68055;51.978;5.658;2023-05-10T09:20:10;19.5;58.9
78731;SHT31;68055;51.978;5.658;2023-05-10T09:22:39;19.5;59.4
78731;SHT31;68055;51.978;5.658;2023-05-10T09:25:11;19.5;60.4
78731;SHT31;68055;51.978;5.658;2023-05-10T09:27:44;19.6;59.4
78731;SHT31;68055;51.978;5.658;2023-05-10T09:30:22;19.6;60.3
78731;SHT31;68055;51.978;5.658;2023-05-10T09:32:53;19.6;59.9
78731;SHT31;68055;51.978;5.658;2023-05-10T09:35:27;19.7;58.4
78731;SHT31;68055;51.978;5.658;2023-05-10T09:37:58;19.7;59.6
78731;SHT31;68055;51.978;5.658;2023-05-10T09:40:30;19.7;58.7
78731;SHT31;68055;51.978;5.658;2023-05-10T09:43:02;19.8;58.3
78731;SHT31;68055;51.978;5.658;2023-05-10T09:45:34;19.8;59.0
78731;SHT31;68055;51.978;5.658;2023-05-10T09:48:05;19.8;59.7
78731;SHT31;68055;51.978;5.658;2023-05-10T09:50:35;19.8;58.0
78731;SHT31;68055;51.978;5.658;2023-05-10T09:53:05;19.9;58.5
78731;SHT31;68055;51.978;5.658;2023-05-10T09:55:42;19.9;58.4
78731;SHT31;68055;51.978;5.658;2023-05-10T09:58:13;19.9;58.8
78731;SHT31;68055;51.978;5.658;2023-05-10T10:00:46;20.0;59.3
78731;SHT31;68055;51.978;5.658;2023-05-10T10:03:20;20.1;57.7
78731;SHT31;68055;51.978;5.658;2023-05-10T10:05:53;20.1;57.5
78731;SHT31;68055;51.978;5.658;2023-05-10T10:08:24;20.1;58.1
78731;SHT31;68055;51.978;5.658;2023-05-10T10:10:54;20.2;58.3
78731;SHT31;68055;51.978;5.658;2023-05-10T10:13:24;20.2;56.3
78731;SHT31;68055;51.978;5.658;2023-05-10T10:15:54;20.2;56.1
78731;SHT31;68055;51.978;5.658;2023-05-10T10:18:26;20.2;57.6
78731;SHT31;68055;51.978;5.658;2023-05-10T10:20:57;20.2;57.2
78731;SHT31;68055;51.978;5.658;2023-05-10T10:23:28;20.3;57.2
78731;SHT31;68055;51.978;5.658;2023-05-10T10:25:58;20.3;56.7
78731;SHT31;68055;51.978;5.658;2023-05-10T10:28:41;20.3;56.4
78731;SHT31;68055;51.978;5.658;2023-05-10T10:31:21;20.4;57.1
78731;SHT31;68055;51.978;5.658;2023-05-10T10:34:00;20.4;56.4
78731;SHT31;68055;51.978;5.658;2023-05-10T10:36:31;20.4;58.6
78731;SHT31;68055;51.978;5.658;2023-05-10T10:39:10;20.5;57.8
78731;SHT31;68055;51.978;5.658;2023-05-10T10:41:51;20.5;56.3
78731;SHT31;68055;51.978;5.658;2023-05-10T10:44:37;20.6;56.4
78731;SHT31;68055;51.978;5.658;2023-05-10T10:47:23;20.6;55.7
78731;SHT31;68055;51.978;5.658;2023-05-10T10:50:05;20.7;55.8
78731;SHT31;68055;51.978;5.658;2023-05-10T10:52:36;20.7;55.0
78731;SHT31;68055;51.978;5.658;2023-05-10T10:55:08;20.7;55.7
78731;SHT31;68055;51.978;5.658;2023-05-10T10:57:45;20.7;57.1
78731;SHT31;68055;51.978;5.658;2023-05-10T11:00:27;20.7;57.4
78731;SHT31;68055;51.978;5.658;2023-05-10T11:02:59;20.7;56.5
78731;SHT31;68055;51.978;5.658;2023-05-10T11:05:40;20.7;56.2
78731;SHT31;68055;51.978;5.658;2023-05-10T11:08:13;20.7;56.8
78731;SHT31;68055;51.978;5.658;2023-05-10T11:10:52;20.7;56.2
78731;SHT31;68055;51.978;5.658;2023-05-10T11:13:32;20.7;55.7
78731;SHT31;68055;51.978;5.658;2023-05-10T11:16:12;20.7;56.2
78731;SHT31;68055;51.978;5.658;2023-05-10T11:18:56;20.7;56.6
78731;SHT31;68055;51.978;5.658;2023-05-10T11:21:26;20.8;56.1
78731;SHT31;68055;51.978;5.658;2023-05-10T11:23:59;20.8;56.3
78731;SHT31;68055;51.978;5.658;2023-05-10T11:26:34;20.8;56.5
78731;SHT31;68055;51.978;5.658;2023-05-10T11:29:05;20.8;55.9
78731;SHT31;68055;51.978;5.658;2023-05-10T11:31:35;20.9;56.3
78731;SHT31;68055;51.978;5.658;2023-05-10T11:34:09;20.9;55.1
78731;SHT31;68055;51.978;5.658;2023-05-10T11:36:40;21.0;55.0
78731;SHT31;68055;51.978;5.658;2023-05-10T11:39:09;21.0;55.7
78731;SHT31;68055;51.978;5.658;2023-05-10T11:41:39;21.0;55.1
78731;SHT31;68055;51.978;5.658;2023-05-10T11:44:09;21.1;55.3
78731;SHT31;68055;51.978;5.658;2023-05-10T11:46:39;21.1;55.2
78731;SHT31;68055;51.978;5.658;2023-05-10T11:49:08;21.1;54.2
78731;SHT31;68055;51.978;5.658;2023-05-10T11:51:39;21.2;54.3
78731;SHT31;68055;51.978;5.658;2023-05-10T11:54:11;21.2;55.1
78731;SHT31;68055;51.978;5.658;2023-05-10T11:56:41;21.3;55.7
78731;SHT31;68055;51.978;5.658;2023-05-10T11:59:14;21.4;54.8
78731;SHT31;68055;51.978;5.658;2023-05-10T12:01:46;21.5;54.5
78731;SHT31;68055;51.978;5.658;2023-05-10T12:04:16;21.5;54.8
78731;SHT31;68055;51.978;5.658;2023-05-10T12:06:46;21.6;54.5
78731;SHT31;68055;51.978;5.658;2023-05-10T12:09:18;21.7;54.0
78731;SHT31;68055;51.978;5.658;2023-05-10T12:11:47;21.7;53.8
78731;SHT31;68055;51.978;5.658;2023-05-10T12:14:19;21.8;52.9
78731;SHT31;68055;51.978;5.658;2023-05-10T12:16:51;21.8;51.8
78731;SHT31;68055;51.978;5.658;2023-05-10T12:19:21;21.9;52.1
78731;SHT31;68055;51.978;5.658;2023-05-10T12:21:51;21.9;53.1
78731;SHT31;68055;51.978;5.658;2023-05-10T12:24:22;22.0;52.8
78731;SHT31;68055;51.978;5.658;2023-05-10T12:26:55;22.0;52.8
78731;SHT31;68055;51.978;5.658;2023-05-10T12:29:25;22.1;53.4
78731;SHT31;68055;51.978;5.658;2023-05-10T12:31:57;22.1;52.6
78731;SHT31;68055;51.978;5.658;2023-05-10T12:34:34;22.2;51.8
78731;SHT31;68055;51.978;5.658;2023-05-10T12:37:05;22.3;53.1
78731;SHT31;68055;51.978;5.658;2023-05-10T12:39:43;22.4;51.8
78731;SHT31;68055;51.978;5.658;2023-05-10T12:42:13;22.4;50.4
78731;SHT31;68055;51.978;5.658;2023-05-10T12:44:43;22.5;50.3
78731;SHT31;68055;51.978;5.658;2023-05-10T12:47:13;22.5;51.2
78731;SHT31;68055;51.978;5.658;2023-05-10T12:49:43;22.6;52.2
78731;SHT31;68055;51.978;5.658;2023-05-10T12:52:12;22.6;50.9
78731;SHT31;68055;51.978;5.658;2023-05-10T12:54:42;22.6;50.2
78731;SHT31;68055;51.978;5.658;2023-05-10T12:57:12;22.6;51.2
78731;SHT31;68055;51.978;5.658;2023-05-10T12:59:42;22.6;50.7
78731;SHT31;68055;51.978;5.658;2023-05-10T13:02:14;22.6;51.7
78731;SHT31;68055;51.978;5.658;2023-05-10T13:04:45;22.6;51.3
78731;SHT31;68055;51.978;5.658;2023-05-10T13:07:17;22.6;51.1
78731;SHT31;68055;51.978;5.658;2023-05-10T13:09:47;22.5;51.8
78731;SHT31;68055;51.978;5.658;2023-05-10T13:12:17;22.5;51.5
78731;SHT31;68055;51.978;5.658;2023-05-10T13:14:47;22.4;52.0
78731;SHT31;68055;51.978;5.658;2023-05-10T13:17:16;22.3;52.3
78731;SHT31;68055;51.978;5.658;2023-05-10T13:19:46;22.3;52.1
78731;SHT31;68055;51.978;5.658;2023-05-10T13:22:17;22.2;52.8
78731;SHT31;68055;51.978;5.658;2023-05-10T13:24:47;22.1;53.7
78731;SHT31;68055;51.978;5.658;2023-05-10T13:27:18;22.0;55.1
78731;SHT31;68055;51.978;5.658;2023-05-10T13:29:48;21.9;55.8
78731;SHT31;68055;51.978;5.658;2023-05-10T13:32:18;21.7;57.4
78731;SHT31;68055;51.978;5.658;2023-05-10T13:34:47;21.4;57.7
78731;SHT31;68055;51.978;5.658;2023-05-10T13:37:17;21.2;60.1
78731;SHT31;68055;51.978;5.658;2023-05-10T13:39:48;20.9;61.8
78731;SHT31;68055;51.978;5.658;2023-05-10T13:42:18;20.7;62.6
78731;SHT31;68055;51.978;5.658;2023-05-10T13:44:48;20.5;63.2
78731;SHT31;68055;51.978;5.658;2023-05-10T13:47:18;20.3;63.4
78731;SHT31;68055;51.978;5.658;2023-05-10T13:49:49;20.1;63.5
78731;SHT31;68055;51.978;5.658;2023-05-10T13:52:18;20.0;63.3
78731;SHT31;68055;51.978;5.658;2023-05-10T13:54:48;19.8;63.3
78731;SHT31;68055;51.978;5.658;2023-05-10T13:57:19;19.6;64.1
78731;SHT31;68055;51.978;5.658;2023-05-10T13:59:49;19.4;63.9
78731;SHT31;68055;51.978;5.658;2023-05-10T14:02:19;19.3;66.3
78731;SHT31;68055;51.978;5.658;2023-05-10T14:04:49;19.1;65.4
78731;SHT31;68055;51.978;5.658;2023-05-10T14:07:19;19.0;67.0
78731;SHT31;68055;51.978;5.658;2023-05-10T14:09:49;18.9;67.0
78731;SHT31;68055;51.978;5.658;2023-05-10T14:12:20;18.8;66.8
78731;SHT31;68055;51.978;5.658;2023-05-10T14:14:50;18.8;67.6
78731;SHT31;68055;51.978;5.658;2023-05-10T14:17:19;18.7;67.8
78731;SHT31;68055;51.978;5.658;2023-05-10T14:19:49;18.6;68.9
78731;SHT31;68055;51.978;5.658;2023-05-10T14:22:19;18.6;69.2
78731;SHT31;68055;51.978;5.658;2023-05-10T14:24:49;18.5;69.2
78731;SHT31;68055;51.978;5.658;2023-05-10T14:27:18;18.5;69.0
78731;SHT31;68055;51.978;5.658;2023-05-10T14:29:48;18.4;69.3
78731;SHT31;68055;51.978;5.658;2023-05-10T14:32:18;18.4;69.4
78731;SHT31;68055;51.978;5.658;2023-05-10T14:34:48;18.4;70.1
78731;SHT31;68055;51.978;5.658;2023-05-10T14:37:18;18.4;69.7
78731;SHT31;68055;51.978;5.658;2023-05-10T14:39:48;18.3;69.8
78731;SHT31;68055;51.978;5.658;2023-05-10T14:42:18;18.3;70.2
78731;SHT31;68055;51.978;5.658;2023-05-10T14:44:47;18.3;70.2
78731;SHT31;68055;51.978;5.658;2023-05-10T14:47:17;18.3;70.7
78731;SHT31;68055;51.978;5.658;2023-05-10T14:49:46;18.3;70.8
78731;SHT31;68055;51.978;5.658;2023-05-10T14:52:16;18.3;70.1
78731;SHT31;68055;51.978;5.658;2023-05-10T14:54:46;18.3;70.1
78731;SHT31;68055;51.978;5.658;2023-05-10T14:57:16;18.3;70.0
78731;SHT31;68055;51.978;5.658;2023-05-10T14:59:45;18.4;69.3
78731;SHT31;68055;51.978;5.658;2023-05-10T15:02:15;18.4;70.2
78731;SHT31;68055;51.978;5.658;2023-05-10T15:04:44;18.4;69.4
78731;SHT31;68055;51.978;5.658;2023-05-10T15:07:14;18.4;70.1
78731;SHT31;68055;51.978;5.658;2023-05-10T15:09:45;18.4;70.3
78731;SHT31;68055;51.978;5.658;2023-05-10T15:12:15;18.4;69.7
78731;SHT31;68055;51.978;5.658;2023-05-10T15:14:45;18.5;69.4
78731;SHT31;68055;51.978;5.658;2023-05-10T15:17:15;18.5;70.2
78731;SHT31;68055;51.978;5.658;2023-05-10T15:19:45;18.5;70.1
78731;SHT31;68055;51.978;5.658;2023-05-10T15:22:16;18.5;70.6
78731;SHT31;68055;51.978;5.658;2023-05-10T15:24:46;18.5;70.4
78731;SHT31;68055;51.978;5.658;2023-05-10T15:27:15;18.6;69.1
78731;SHT31;68055;51.978;5.658;2023-05-10T15:29:45;18.6;69.1
78731;SHT31;68055;51.978;5.658;2023-05-10T15:32:17;18.6;69.4
78731;SHT31;68055;51.978;5.658;2023-05-10T15:34:47;18.6;69.2
78731;SHT31;68055;51.978;5.658;2023-05-10T15:37:16;18.7;68.9
78731;SHT31;68055;51.978;5.658;2023-05-10T15:39:46;18.7;70.2
78731;SHT31;68055;51.978;5.658;2023-05-10T15:42:16;18.7;69.7
78731;SHT31;68055;51.978;5.658;2023-05-10T15:44:46;18.8;68.6
78731;SHT31;68055;51.978;5.658;2023-05-10T15:47:17;18.8;69.3
78731;SHT31;68055;51.978;5.658;2023-05-10T15:49:47;18.8;69.7
78731;SHT31;68055;51.978;5.658;2023-05-10T15:52:16;18.8;68.8
78731;SHT31;68055;51.978;5.658;2023-05-10T15:54:47;18.9;68.4
78731;SHT31;68055;51.978;5.658;2023-05-10T15:57:17;18.9;68.3
78731;SHT31;68055;51.978;5.658;2023-05-10T15:59:46;18.9;68.3
78731;SHT31;68055;51.978;5.658;2023-05-10T16:02:19;18.9;69.7
78731;SHT31;68055;51.978;5.658;2023-05-10T16:04:49;18.9;68.0
78731;SHT31;68055;51.978;5.658;2023-05-10T16:07:19;19.0;66.6
78731;SHT31;68055;51.978;5.658;2023-05-10T16:09:49;19.1;66.3
78731;SHT31;68055;51.978;5.658;2023-05-10T16:12:19;19.1;66.3
78731;SHT31;68055;51.978;5.658;2023-05-10T16:14:48;19.1;65.6
78731;SHT31;68055;51.978;5.658;2023-05-10T16:17:18;19.1;67.2
78731;SHT31;68055;51.978;5.658;2023-05-10T16:19:47;19.2;66.6
78731;SHT31;68055;51.978;5.658;2023-05-10T16:22:17;19.2;66.4
78731;SHT31;68055;51.978;5.658;2023-05-10T16:24:50;19.2;67.4
78731;SHT31;68055;51.978;5.658;2023-05-10T16:27:20;19.2;66.9
78731;SHT31;68055;51.978;5.658;2023-05-10T16:29:52;19.2;66.6